Time;durP1;ratioP1;P1;durP2;ratioP2;P2;SDS_P1;SDS_P2;PMS_P1;PMS_P2;Temp;Humidity;BMP_temperature;BMP_pressure;BME280_temperature;BME280_humidity;BME280_pressure;Samples;Min_cycle;Max_cycle;Signal;HPM_P1;HPM_P2
2022/08/15 00:01:44;;;;;;;14.95;12.10;;;22.20;99.90;;;;;;5042919;28;20045;-69
2022/08/15 00:04:09;;;;;;;13.55;12.15;;;22.20;99.90;;;;;;5042537;28;20049;-69
2022/08/15 00:06:41;;;;;;;15.55;12.18;;;22.10;99.90;;;;;;5046389;28;20033;-69
2022/08/15 00:09:18;;;;;;;15.63;13.60;;;22.10;99.90;;;;;;5041167;28;20037;-69
2022/08/15 00:11:48;;;;;;;17.48;14.98;;;22.10;99.90;;;;;;5043831;28;20459;-70
2022/08/15 00:14:28;;;;;;;14.65;13.07;;;22.10;99.90;;;;;;5044348;28;20052;-70
2022/08/15 00:16:54;;;;;;;14.73;12.20;;;22.10;99.90;;;;;;5041088;28;20049;-69
2022/08/15 00:19:28;;;;;;;12.60;11.30;;;22.10;99.90;;;;;;5044609;28;20049;-69
2022/08/15 00:21:59;;;;;;;12.73;11.30;;;22.00;99.90;;;;;;5040516;28;20523;-69
2022/08/15 00:24:26;;;;;;;15.45;12.55;;;22.00;99.90;;;;;;5037383;28;20064;-69
2022/08/15 00:26:54;;;;;;;15.55;13.65;;;22.00;99.90;;;;;;5044084;28;20037;-68
2022/08/15 00:29:24;;;;;;;15.90;14.27;;;22.00;99.90;;;;;;5041349;28;20087;-69
2022/08/15 00:31:55;;;;;;;14.30;12.80;;;21.90;99.90;;;;;;5044247;28;20044;-69
2022/08/15 00:34:24;;;;;;;14.00;12.60;;;21.90;99.90;;;;;;5041464;28;20037;-69
2022/08/15 00:36:50;;;;;;;13.55;12.20;;;21.90;99.90;;;;;;5044425;28;20036;-70
2022/08/15 00:39:22;;;;;;;14.20;12.70;;;21.90;99.90;;;;;;5042538;28;20052;-68
2022/08/15 00:41:50;;;;;;;11.95;10.75;;;21.90;99.90;;;;;;5044203;28;20094;-70
2022/08/15 00:44:40;;;;;;;12.27;10.98;;;21.80;99.90;;;;;;5040194;28;20050;-69
2022/08/15 00:47:10;;;;;;;12.10;10.70;;;21.80;99.90;;;;;;5040005;28;20038;-69
2022/08/15 00:49:37;;;;;;;13.43;11.18;;;21.80;99.90;;;;;;5041916;28;20029;-68
2022/08/15 00:52:15;;;;;;;15.60;12.15;;;21.80;99.90;;;;;;5040760;28;20065;-69
2022/08/15 00:54:49;;;;;;;14.00;11.77;;;21.70;99.90;;;;;;5042117;28;20044;-69
2022/08/15 00:57:30;;;;;;;13.20;11.63;;;21.70;99.90;;;;;;5044344;28;20044;-69
2022/08/15 01:00:00;;;;;;;13.48;11.98;;;21.60;99.90;;;;;;5036594;28;20459;-70
2022/08/15 01:02:31;;;;;;;13.38;11.98;;;21.60;99.90;;;;;;5041312;28;20037;-70
2022/08/15 01:04:58;;;;;;;13.43;12.02;;;21.50;99.90;;;;;;5042252;28;20098;-68
2022/08/15 01:07:24;;;;;;;14.75;12.77;;;21.50;99.90;;;;;;5041975;28;20048;-68
2022/08/15 01:09:52;;;;;;;12.63;11.18;;;21.50;99.90;;;;;;5044089;28;20533;-68
2022/08/15 01:12:22;;;;;;;13.35;11.88;;;21.50;99.90;;;;;;5037344;28;20076;-68
2022/08/15 01:14:56;;;;;;;12.52;11.10;;;21.40;99.90;;;;;;5039599;28;20127;-68
2022/08/15 01:17:25;;;;;;;12.20;10.90;;;21.40;99.90;;;;;;5040498;28;20427;-69
2022/08/15 01:20:11;;;;;;;11.48;10.30;;;21.30;99.90;;;;;;5043696;28;20048;-69
2022/08/15 01:22:49;;;;;;;11.85;10.65;;;21.30;99.90;;;;;;5042865;28;20061;-68
2022/08/15 01:25:25;;;;;;;12.25;11.00;;;21.20;99.90;;;;;;5036401;28;20405;-68
2022/08/15 01:28:00;;;;;;;12.48;10.98;;;21.20;99.90;;;;;;5036573;28;20124;-70
2022/08/15 01:30:33;;;;;;;12.83;11.10;;;21.20;99.90;;;;;;5042132;28;20041;-68
2022/08/15 01:32:59;;;;;;;13.15;11.75;;;21.10;99.90;;;;;;5040375;28;20392;-69
2022/08/15 01:35:26;;;;;;;13.15;11.15;;;21.10;99.90;;;;;;5042601;28;20048;-68
2022/08/15 01:37:53;;;;;;;12.40;11.20;;;21.10;99.90;;;;;;5041577;28;20048;-68
2022/08/15 01:40:39;;;;;;;12.43;10.73;;;21.10;99.90;;;;;;5043529;28;20041;-68
2022/08/15 01:43:07;;;;;;;13.15;10.50;;;21.00;99.90;;;;;;5041660;28;20449;-69
2022/08/15 01:45:35;;;;;;;12.38;11.07;;;21.00;99.90;;;;;;5040200;28;20050;-72
2022/08/15 01:48:11;;;;;;;12.43;11.07;;;21.00;99.90;;;;;;5039312;28;20041;-70
2022/08/15 01:50:49;;;;;;;12.50;11.20;;;20.90;99.90;;;;;;5044049;28;20500;-70
2022/08/15 01:53:23;;;;;;;12.27;10.63;;;20.90;99.90;;;;;;5035825;28;20052;-70
2022/08/15 01:55:52;;;;;;;12.85;11.32;;;20.90;99.90;;;;;;5041859;28;20396;-69
2022/08/15 01:58:22;;;;;;;11.43;10.15;;;20.90;99.90;;;;;;5041604;28;20041;-69
2022/08/15 02:00:56;;;;;;;13.38;11.52;;;20.90;99.90;;;;;;5041791;28;20088;-70
2022/08/15 02:03:33;;;;;;;13.07;11.68;;;20.80;99.90;;;;;;5041524;28;20489;-70
2022/08/15 02:06:06;;;;;;;14.70;11.45;;;20.80;99.90;;;;;;5041284;28;20084;-70
2022/08/15 02:08:32;;;;;;;14.50;11.25;;;20.80;99.90;;;;;;5041669;28;20106;-70
2022/08/15 02:10:58;;;;;;;12.38;11.07;;;20.80;99.90;;;;;;5041409;28;20040;-69
2022/08/15 02:13:24;;;;;;;13.85;11.23;;;20.70;99.90;;;;;;5041565;28;20050;-71
2022/08/15 02:15:51;;;;;;;12.20;10.88;;;20.80;99.90;;;;;;5038306;28;20061;-70
2022/08/15 02:18:18;;;;;;;12.05;10.70;;;20.70;99.90;;;;;;5041752;28;20083;-70
2022/08/15 02:20:43;;;;;;;12.43;10.57;;;20.70;99.90;;;;;;5039838;28;20076;-69
2022/08/15 02:23:09;;;;;;;12.73;11.10;;;20.70;99.90;;;;;;5041498;28;20060;-70
2022/08/15 02:25:35;;;;;;;12.93;10.85;;;20.70;99.90;;;;;;5040310;28;20044;-70
2022/08/15 02:28:02;;;;;;;12.15;10.60;;;20.60;99.90;;;;;;5042240;28;20036;-70
2022/08/15 02:30:30;;;;;;;12.60;9.95;;;20.60;99.90;;;;;;5038467;28;20045;-70
2022/08/15 02:32:56;;;;;;;12.02;10.45;;;20.50;99.90;;;;;;5040724;28;20044;-69
2022/08/15 02:35:23;;;;;;;11.85;10.63;;;20.50;99.90;;;;;;5040514;28;20045;-70
2022/08/15 02:37:49;;;;;;;13.60;10.57;;;20.50;99.90;;;;;;5040848;28;20036;-70
2022/08/15 02:40:16;;;;;;;11.55;10.30;;;20.60;99.90;;;;;;5035900;28;20056;-69
2022/08/15 02:42:45;;;;;;;11.40;10.20;;;20.60;99.90;;;;;;5040628;28;20404;-69
2022/08/15 02:45:12;;;;;;;11.93;10.60;;;20.50;99.90;;;;;;5039569;28;20045;-69
2022/08/15 02:47:41;;;;;;;12.23;10.13;;;20.50;99.90;;;;;;5036410;28;20053;-70
2022/08/15 02:50:07;;;;;;;12.88;10.07;;;20.50;99.90;;;;;;5042029;28;20507;-70
2022/08/15 02:52:38;;;;;;;11.85;10.45;;;20.40;99.90;;;;;;5040197;28;20069;-69
2022/08/15 02:55:04;;;;;;;13.40;10.45;;;20.40;99.90;;;;;;5034771;28;20046;-69
2022/08/15 02:57:32;;;;;;;15.98;10.75;;;20.40;99.90;;;;;;5035490;28;20037;-70
2022/08/15 02:59:58;;;;;;;12.68;10.27;;;20.40;99.90;;;;;;5040284;28;20110;-70
2022/08/15 03:02:25;;;;;;;11.38;10.15;;;20.40;99.90;;;;;;5042916;28;20037;-70
2022/08/15 03:04:50;;;;;;;11.23;10.05;;;20.40;99.90;;;;;;5038469;28;20421;-70
2022/08/15 03:07:16;;;;;;;11.45;9.90;;;20.40;99.90;;;;;;5040587;28;20493;-70
2022/08/15 03:09:42;;;;;;;11.77;9.85;;;20.40;99.90;;;;;;5041471;28;20072;-70
2022/08/15 03:12:11;;;;;;;14.70;10.52;;;20.40;99.90;;;;;;5042938;28;20060;-69
2022/08/15 03:14:37;;;;;;;12.45;10.32;;;20.40;99.90;;;;;;5039431;28;20485;-70
2022/08/15 03:17:04;;;;;;;12.32;10.85;;;20.40;99.90;;;;;;5045720;28;20547;-70
2022/08/15 03:19:30;;;;;;;11.75;10.48;;;20.30;99.90;;;;;;5041729;28;20072;-69
2022/08/15 03:21:56;;;;;;;12.75;10.82;;;20.40;99.90;;;;;;5046760;28;20037;-70
2022/08/15 03:24:22;;;;;;;12.10;10.60;;;20.30;99.90;;;;;;5041944;28;20043;-70
2022/08/15 03:26:48;;;;;;;13.23;10.80;;;20.30;99.90;;;;;;5046347;28;20095;-70
2022/08/15 03:29:18;;;;;;;16.52;10.75;;;20.30;99.90;;;;;;5044902;28;20114;-69
2022/08/15 03:31:47;;;;;;;12.25;10.57;;;20.30;99.90;;;;;;5042550;28;20559;-70
2022/08/15 03:34:14;;;;;;;13.20;11.50;;;20.30;99.90;;;;;;5044551;28;20041;-67
2022/08/15 03:36:44;;;;;;;12.18;10.80;;;20.30;99.90;;;;;;5045086;28;20120;-68
2022/08/15 03:39:10;;;;;;;13.45;11.07;;;20.30;99.90;;;;;;5042688;28;20134;-67
2022/08/15 03:41:36;;;;;;;13.32;10.85;;;20.30;99.90;;;;;;5044425;28;20073;-68
2022/08/15 03:44:02;;;;;;;14.90;11.88;;;20.20;99.90;;;;;;5041158;28;20045;-67
2022/08/15 03:46:27;;;;;;;13.82;11.82;;;20.20;99.90;;;;;;5042987;28;20041;-68
2022/08/15 03:48:56;;;;;;;14.90;11.82;;;20.20;99.90;;;;;;5046563;28;20045;-68
2022/08/15 03:51:24;;;;;;;13.15;11.65;;;20.20;99.90;;;;;;5039448;28;20049;-67
2022/08/15 03:53:55;;;;;;;13.20;11.70;;;20.10;99.90;;;;;;5038319;28;20117;-68
2022/08/15 03:56:25;;;;;;;14.25;11.48;;;20.10;99.90;;;;;;5038280;28;20049;-68
2022/08/15 03:58:55;;;;;;;16.27;12.02;;;20.10;99.90;;;;;;5037764;28;20048;-68
2022/08/15 04:01:29;;;;;;;12.88;11.10;;;20.00;99.90;;;;;;5042606;28;20051;-68
2022/08/15 04:03:55;;;;;;;12.50;11.15;;;20.00;99.90;;;;;;5038932;28;20401;-67
2022/08/15 04:06:24;;;;;;;13.85;11.25;;;20.00;99.90;;;;;;5044902;28;20045;-68
2022/08/15 04:08:53;;;;;;;13.50;12.05;;;20.00;99.90;;;;;;5038542;28;20055;-68
2022/08/15 04:11:21;;;;;;;15.05;12.02;;;20.00;99.90;;;;;;5037678;28;20489;-68
2022/08/15 04:13:47;;;;;;;12.55;10.80;;;20.00;99.90;;;;;;5033464;28;20057;-68
2022/08/15 04:16:14;;;;;;;15.80;11.25;;;20.00;99.90;;;;;;5044054;28;20037;-67
2022/08/15 04:18:41;;;;;;;13.07;11.55;;;20.00;99.90;;;;;;5041829;28;20161;-68
2022/08/15 04:21:11;;;;;;;14.45;11.98;;;20.00;99.90;;;;;;5042454;28;20033;-68
2022/08/15 04:23:41;;;;;;;16.60;11.43;;;20.00;99.90;;;;;;5042116;28;20293;-68
2022/08/15 04:26:06;;;;;;;16.85;12.15;;;20.00;99.90;;;;;;5044391;28;20048;-68
2022/08/15 04:28:32;;;;;;;16.98;12.02;;;19.90;99.90;;;;;;5039388;28;20041;-68
2022/08/15 04:31:01;;;;;;;15.02;10.68;;;20.00;99.90;;;;;;5044062;28;20041;-68
2022/08/15 04:33:30;;;;;;;14.35;11.60;;;20.00;99.90;;;;;;5042492;28;20100;-68
2022/08/15 04:36:02;;;;;;;14.88;11.55;;;20.00;99.90;;;;;;5041985;28;20048;-68
2022/08/15 04:38:28;;;;;;;14.65;12.23;;;20.00;99.90;;;;;;5043809;28;20116;-68
2022/08/15 04:40:54;;;;;;;14.75;11.90;;;20.00;99.90;;;;;;5043078;28;20445;-69
2022/08/15 04:43:23;;;;;;;13.02;11.60;;;20.00;99.90;;;;;;5041058;28;20073;-68
2022/08/15 04:45:50;;;;;;;13.85;12.00;;;20.00;99.90;;;;;;5021069;28;20390;-68
2022/08/15 04:48:16;;;;;;;14.95;12.27;;;20.00;99.90;;;;;;5022192;28;20042;-67
2022/08/15 04:50:44;;;;;;;14.65;12.65;;;20.00;99.90;;;;;;5020661;28;20034;-68
2022/08/15 04:53:11;;;;;;;15.55;12.77;;;20.00;99.90;;;;;;5016778;28;20076;-68
2022/08/15 04:55:41;;;;;;;15.23;12.90;;;20.00;99.90;;;;;;5024339;28;20037;-68
2022/08/15 04:58:09;;;;;;;15.48;12.23;;;20.00;99.90;;;;;;5022031;28;20050;-68
2022/08/15 05:00:40;;;;;;;17.02;13.23;;;20.00;99.90;;;;;;5025075;28;20097;-68
2022/08/15 05:03:13;;;;;;;14.70;12.82;;;20.00;99.90;;;;;;5020907;28;20540;-67
2022/08/15 05:05:45;;;;;;;14.27;12.18;;;20.00;99.90;;;;;;5018308;28;20051;-68
2022/08/15 05:08:12;;;;;;;15.50;12.55;;;20.10;99.90;;;;;;5017597;28;20102;-68
2022/08/15 05:10:39;;;;;;;15.15;11.45;;;20.10;99.90;;;;;;5036391;28;20041;-68
2022/08/15 05:13:10;;;;;;;12.38;11.07;;;20.10;99.90;;;;;;5023625;28;20044;-68
2022/08/15 05:15:36;;;;;;;13.73;12.15;;;20.20;99.90;;;;;;5017406;28;20049;-68
2022/08/15 05:18:02;;;;;;;14.70;11.70;;;20.20;99.90;;;;;;5023757;28;20030;-68
2022/08/15 05:20:28;;;;;;;14.02;11.50;;;20.20;99.90;;;;;;5021122;28;20392;-67
2022/08/15 05:22:55;;;;;;;13.68;12.05;;;20.30;99.90;;;;;;5021984;28;20041;-70
2022/08/15 05:25:22;;;;;;;14.68;12.43;;;20.30;99.90;;;;;;5022382;28;20045;-68
2022/08/15 05:27:48;;;;;;;13.35;11.70;;;20.30;99.90;;;;;;5021475;28;20127;-68
2022/08/15 05:30:14;;;;;;;14.95;12.10;;;20.40;99.90;;;;;;5020606;28;20100;-68
2022/08/15 05:32:39;;;;;;;14.98;12.68;;;20.40;99.90;;;;;;5023664;28;20041;-68
2022/08/15 05:35:06;;;;;;;14.98;12.98;;;20.40;99.90;;;;;;5019737;28;20045;-68
2022/08/15 05:37:32;;;;;;;15.52;12.60;;;20.50;99.90;;;;;;5015899;28;20056;-68
2022/08/15 05:39:58;;;;;;;18.13;12.27;;;20.50;99.90;;;;;;5022781;28;20480;-69
2022/08/15 05:43:04;;;;;;;15.10;12.40;;;20.60;99.90;;;;;;5022044;28;20053;-68
2022/08/15 05:45:42;;;;;;;16.65;13.48;;;20.60;99.90;;;;;;4988893;28;20049;-68
2022/08/15 05:48:23;;;;;;;15.95;13.40;;;20.60;99.90;;;;;;5017560;28;20057;-68
2022/08/15 05:51:32;;;;;;;15.60;12.85;;;20.60;99.90;;;;;;5020730;28;20132;-68
2022/08/15 05:54:19;;;;;;;14.50;12.48;;;20.70;99.90;;;;;;5016353;28;20062;-68
2022/08/15 05:56:54;;;;;;;16.70;13.48;;;20.70;99.90;;;;;;5019700;28;20046;-68
2022/08/15 05:59:32;;;;;;;13.90;12.38;;;20.80;99.90;;;;;;5020666;28;20460;-68
2022/08/15 06:02:07;;;;;;;16.17;12.82;;;20.90;99.90;;;;;;5018969;28;20106;-68
2022/08/15 06:05:00;;;;;;;14.73;12.77;;;20.90;99.90;;;;;;5016453;28;20049;-68
2022/08/15 06:07:27;;;;;;;17.73;13.00;;;21.00;99.90;;;;;;5017933;28;20289;-68
2022/08/15 06:10:00;;;;;;;15.73;12.68;;;21.00;99.90;;;;;;5021114;28;20053;-68
2022/08/15 06:12:32;;;;;;;16.83;13.50;;;21.10;99.90;;;;;;5022888;28;20044;-68
2022/08/15 06:15:21;;;;;;;16.00;12.80;;;21.20;99.90;;;;;;5016324;28;20087;-68
2022/08/15 06:17:57;;;;;;;18.20;12.70;;;21.20;99.90;;;;;;5018279;28;20054;-68
2022/08/15 06:20:36;;;;;;;14.32;12.35;;;21.40;99.90;;;;;;5023310;28;20045;-68
2022/08/15 06:23:30;;;;;;;14.50;12.38;;;21.40;99.90;;;;;;5014053;28;20056;-68
2022/08/15 06:26:14;;;;;;;16.83;12.55;;;21.60;99.90;;;;;;5015492;28;20490;-68
2022/08/15 06:28:48;;;;;;;18.05;13.98;;;21.60;99.90;;;;;;5019314;28;20133;-68
2022/08/15 06:31:25;;;;;;;20.02;15.65;;;21.80;99.90;;;;;;5020031;28;20060;-68
2022/08/15 06:34:02;;;;;;;18.55;14.95;;;21.90;99.90;;;;;;5021919;28;20044;-68
2022/08/15 06:36:41;;;;;;;19.30;14.95;;;21.90;99.90;;;;;;5034966;28;20049;-68
2022/08/15 06:39:34;;;;;;;18.80;15.05;;;22.00;99.90;;;;;;5021771;28;20041;-69
2022/08/15 06:42:13;;;;;;;18.80;14.52;;;22.10;99.90;;;;;;5016744;28;20450;-69
2022/08/15 06:44:40;;;;;;;17.48;14.90;;;22.30;99.90;;;;;;5020790;28;20038;-68
2022/08/15 06:47:07;;;;;;;17.08;14.68;;;22.40;99.90;;;;;;5019942;28;20117;-68
2022/08/15 06:49:48;;;;;;;18.48;14.85;;;22.50;99.90;;;;;;5021310;28;20095;-68
2022/08/15 06:52:17;;;;;;;18.70;15.25;;;22.70;99.90;;;;;;5026818;28;20382;-69
2022/08/15 06:54:43;;;;;;;17.98;14.52;;;22.70;99.90;;;;;;5026636;28;20048;-68
2022/08/15 06:57:14;;;;;;;15.73;13.18;;;22.80;99.90;;;;;;5030141;28;20041;-69
2022/08/15 07:00:27;;;;;;;15.85;13.45;;;23.00;99.90;;;;;;5029056;28;20525;-68
2022/08/15 07:03:19;;;;;;;18.02;12.75;;;23.20;99.90;;;;;;5022083;28;20048;-68
2022/08/15 07:05:54;;;;;;;14.13;12.35;;;23.40;99.90;;;;;;5027829;28;20119;-68
2022/08/15 07:08:45;;;;;;;14.73;12.48;;;23.60;99.90;;;;;;5024555;28;20116;-69
2022/08/15 07:11:20;;;;;;;14.02;12.35;;;23.70;99.90;;;;;;5027658;28;20125;-68
2022/08/15 07:14:30;;;;;;;14.07;12.48;;;23.90;99.90;;;;;;5027262;28;20038;-67
2022/08/15 07:17:12;;;;;;;13.95;11.45;;;24.00;99.90;;;;;;5023465;28;20046;-68
2022/08/15 07:19:38;;;;;;;16.50;11.50;;;24.30;99.90;;;;;;5026500;28;20041;-68
2022/08/15 07:22:06;;;;;;;12.05;10.65;;;24.50;99.90;;;;;;5026510;28;20051;-69
2022/08/15 07:24:33;;;;;;;15.10;12.40;;;24.60;99.90;;;;;;5026376;28;20050;-68
2022/08/15 07:27:08;;;;;;;12.82;11.00;;;24.80;99.90;;;;;;5025994;28;20038;-69
2022/08/15 07:29:37;;;;;;;12.60;11.05;;;24.90;99.90;;;;;;5027604;28;20049;-69
2022/08/15 07:32:17;;;;;;;14.98;11.05;;;25.10;99.90;;;;;;5026201;28;20137;-69
2022/08/15 07:35:09;;;;;;;11.50;9.68;;;25.40;99.90;;;;;;5021157;28;20092;-68
2022/08/15 07:37:37;;;;;;;10.77;8.40;;;25.60;99.90;;;;;;5023354;28;20054;-68
2022/08/15 07:40:18;;;;;;;8.98;7.97;;;25.80;99.40;;;;;;5021617;28;20045;-69
2022/08/15 07:42:48;;;;;;;11.52;8.32;;;26.20;99.90;;;;;;5022652;28;20128;-69
2022/08/15 07:45:36;;;;;;;12.02;7.63;;;27.00;99.20;;;;;;5020088;28;20084;-69
2022/08/15 07:48:05;;;;;;;10.55;8.13;;;28.30;97.20;;;;;;5025652;28;20041;-69
2022/08/15 07:50:38;;;;;;;9.20;7.25;;;29.30;96.70;;;;;;5027335;28;20037;-69
2022/08/15 07:53:16;;;;;;;8.07;6.80;;;30.20;93.80;;;;;;5023167;28;20038;-69
2022/08/15 07:56:04;;;;;;;9.23;7.30;;;30.80;93.00;;;;;;5021322;28;20501;-69
2022/08/15 07:58:32;;;;;;;8.23;7.32;;;31.20;92.70;;;;;;5027309;28;20103;-69
2022/08/15 08:01:31;;;;;;;8.40;6.68;;;31.70;92.40;;;;;;5025034;28;20100;-69
2022/08/15 08:04:15;;;;;;;9.85;8.40;;;32.10;90.80;;;;;;5021470;28;20057;-70
2022/08/15 08:06:51;;;;;;;9.50;8.40;;;32.30;90.40;;;;;;5016842;28;20493;-69
2022/08/15 08:09:29;;;;;;;8.43;7.50;;;32.10;89.80;;;;;;5019361;28;20069;-69
2022/08/15 08:12:09;;;;;;;9.65;7.50;;;32.10;90.90;;;;;;5023945;28;20048;-68
2022/08/15 08:15:17;;;;;;;8.50;7.60;;;32.40;88.50;;;;;;5024066;28;20029;-69
2022/08/15 08:18:18;;;;;;;8.38;6.25;;;32.80;90.10;;;;;;5020095;28;20069;-69
2022/08/15 08:20:58;;;;;;;6.75;5.90;;;33.00;87.40;;;;;;5032798;28;20053;-69
2022/08/15 08:23:33;;;;;;;7.03;5.85;;;33.60;87.50;;;;;;5018949;28;20049;-69
2022/08/15 08:26:26;;;;;;;6.47;5.38;;;33.60;85.00;;;;;;5023522;28;20085;-70
2022/08/15 08:29:13;;;;;;;7.35;5.25;;;33.90;84.00;;;;;;5021470;28;20504;-69
2022/08/15 08:32:19;;;;;;;6.63;5.07;;;34.10;85.10;;;;;;5019064;28;20049;-70
2022/08/15 08:34:57;;;;;;;6.38;5.68;;;34.40;83.50;;;;;;5020391;28;20060;-69
2022/08/15 08:37:38;;;;;;;7.93;5.47;;;34.80;84.80;;;;;;5020504;28;20042;-69
2022/08/15 08:43:08;;;;;;;6.35;5.35;;;35.00;82.10;;;;;;5022312;28;20128;-69
2022/08/15 08:45:47;;;;;;;7.80;5.70;;;35.30;81.70;;;;;;5018602;28;20045;-69
2022/08/15 08:48:34;;;;;;;6.40;5.80;;;35.50;81.90;;;;;;5018698;28;20069;-69
2022/08/15 08:51:09;;;;;;;6.90;5.57;;;35.60;81.00;;;;;;5020488;28;20477;-68
2022/08/15 08:54:01;;;;;;;7.00;6.30;;;35.80;82.50;;;;;;5019044;28;20128;-69
2022/08/15 08:56:35;;;;;;;7.18;6.28;;;36.20;80.40;;;;;;5021645;28;20077;-69
2022/08/15 08:59:23;;;;;;;8.20;6.80;;;35.90;82.00;;;;;;5016524;28;20136;-69
2022/08/15 09:01:56;;;;;;;7.72;6.93;;;36.00;82.90;;;;;;5021202;28;20038;-69
2022/08/15 09:04:33;;;;;;;7.32;6.40;;;35.80;82.30;;;;;;5022798;28;20402;-69
2022/08/15 09:07:03;;;;;;;8.75;7.30;;;36.20;82.90;;;;;;5016293;28;20054;-69
2022/08/15 09:09:34;;;;;;;8.23;7.28;;;36.10;81.90;;;;;;5016225;28;20034;-69
2022/08/15 09:14:52;;;;;;;7.88;7.05;;;35.70;82.00;;;;;;5022957;28;20081;-69
2022/08/15 09:17:20;;;;;;;8.52;7.60;;;35.30;82.00;;;;;;5021042;28;20435;-69
2022/08/15 09:19:58;;;;;;;8.40;7.50;;;34.90;83.10;;;;;;5025732;28;20045;-69
2022/08/15 09:22:25;;;;;;;8.75;6.97;;;35.00;82.80;;;;;;5020845;28;20048;-69
2022/08/15 09:24:53;;;;;;;9.48;7.45;;;35.30;82.30;;;;;;5021905;28;20489;-69
2022/08/15 09:27:27;;;;;;;8.38;7.18;;;35.70;82.40;;;;;;5020925;28;20061;-69
2022/08/15 09:30:04;;;;;;;8.52;7.53;;;36.40;82.60;;;;;;5023632;28;20065;-69
2022/08/15 09:32:55;;;;;;;8.40;7.60;;;36.80;80.00;;;;;;5024528;28;20092;-69
2022/08/15 09:35:56;;;;;;;8.65;7.75;;;36.90;79.70;;;;;;5023237;28;20041;-69
2022/08/15 09:38:44;;;;;;;9.98;8.30;;;37.10;81.20;;;;;;5018835;28;20068;-69
2022/08/15 09:41:21;;;;;;;8.25;7.45;;;37.10;80.60;;;;;;5021213;28;20093;-69
2022/08/15 09:43:55;;;;;;;9.18;8.27;;;37.30;81.30;;;;;;5020334;28;20111;-69
2022/08/15 09:46:46;;;;;;;9.50;8.60;;;37.40;82.00;;;;;;5022780;28;20099;-69
2022/08/15 09:50:00;;;;;;;10.00;8.80;;;37.40;81.30;;;;;;5022282;28;20045;-69
2022/08/15 09:52:56;;;;;;;10.05;8.80;;;37.50;82.90;;;;;;5017032;28;20062;-69
2022/08/15 09:55:34;;;;;;;11.52;9.32;;;37.30;83.00;;;;;;5015821;28;20042;-69
2022/08/15 09:58:29;;;;;;;11.57;8.90;;;36.80;83.30;;;;;;5017825;28;20050;-69
2022/08/15 10:01:03;;;;;;;11.75;9.20;;;37.00;84.30;;;;;;5017304;28;20557;-69
2022/08/15 10:03:44;;;;;;;14.20;10.55;;;36.90;84.90;;;;;;5021952;28;20498;-69
2022/08/15 10:06:16;;;;;;;10.23;9.15;;;36.90;83.30;;;;;;5020540;28;20497;-69
2022/08/15 10:08:57;;;;;;;10.98;9.95;;;36.80;84.00;;;;;;5021902;28;20049;-69
2022/08/15 10:11:30;;;;;;;10.25;9.15;;;37.00;83.50;;;;;;5016105;28;20053;-69
2022/08/15 10:14:06;;;;;;;9.63;8.73;;;36.80;84.50;;;;;;5021916;28;20554;-69
2022/08/15 10:16:40;;;;;;;10.48;9.40;;;37.10;83.10;;;;;;5021784;28;20502;-69
2022/08/15 10:19:30;;;;;;;11.23;9.65;;;37.10;83.50;;;;;;5019390;28;20052;-69
2022/08/15 10:22:00;;;;;;;12.32;10.23;;;37.10;84.10;;;;;;5018787;28;20034;-69
2022/08/15 10:24:35;;;;;;;12.98;9.57;;;37.10;84.20;;;;;;5022519;28;20067;-69
2022/08/15 10:27:07;;;;;;;9.50;8.38;;;37.00;84.10;;;;;;5021379;28;20044;-69
2022/08/15 10:29:34;;;;;;;8.88;7.97;;;37.20;83.50;;;;;;5021109;28;20092;-69
2022/08/15 10:32:02;;;;;;;9.82;8.85;;;37.00;82.40;;;;;;5020514;28;20052;-69
2022/08/15 10:34:38;;;;;;;11.63;8.55;;;36.70;82.20;;;;;;5018942;28;20413;-70
2022/08/15 10:37:26;;;;;;;9.57;7.10;;;36.70;81.70;;;;;;5022261;28;20042;-69
2022/08/15 10:40:07;;;;;;;8.60;7.70;;;36.50;82.30;;;;;;5016409;28;20050;-69
2022/08/15 10:42:42;;;;;;;8.63;7.63;;;36.60;82.30;;;;;;5020354;28;20127;-69
2022/08/15 10:45:55;;;;;;;9.02;8.13;;;36.50;81.80;;;;;;5023284;28;20088;-69
2022/08/15 10:48:37;;;;;;;8.95;8.05;;;36.20;80.20;;;;;;5018258;28;20481;-69
2022/08/15 10:51:03;;;;;;;8.95;7.75;;;35.90;81.30;;;;;;5021010;28;20034;-69
2022/08/15 10:53:47;;;;;;;11.82;9.43;;;35.80;81.90;;;;;;5021947;28;20053;-69
2022/08/15 10:56:26;;;;;;;10.95;7.97;;;35.80;81.40;;;;;;5015171;28;20481;-69
2022/08/15 10:59:02;;;;;;;8.77;7.28;;;35.60;80.50;;;;;;5018500;28;20073;-69
2022/08/15 11:01:33;;;;;;;9.98;7.07;;;35.60;79.80;;;;;;5019456;28;20058;-69
2022/08/15 11:04:05;;;;;;;9.25;7.43;;;35.30;80.00;;;;;;5020497;28;20038;-69
2022/08/15 11:06:37;;;;;;;7.97;7.18;;;35.00;80.10;;;;;;5019673;28;20438;-69
2022/08/15 11:09:14;;;;;;;10.60;7.20;;;34.40;80.80;;;;;;5021830;28;20108;-69
2022/08/15 11:11:53;;;;;;;6.82;6.13;;;34.40;79.70;;;;;;5012507;28;20389;-69
2022/08/15 11:14:27;;;;;;;7.13;6.43;;;34.00;80.50;;;;;;5017427;28;20104;-69
2022/08/15 11:16:56;;;;;;;7.38;6.45;;;33.70;80.00;;;;;;5019723;28;20133;-68
2022/08/15 11:19:33;;;;;;;10.32;7.00;;;33.50;80.60;;;;;;5020960;28;20067;-69
2022/08/15 11:22:11;;;;;;;7.05;6.00;;;33.50;80.80;;;;;;5019326;28;20068;-69
2022/08/15 11:24:39;;;;;;;6.60;5.20;;;33.40;81.90;;;;;;5014443;28;20129;-69
2022/08/15 11:27:15;;;;;;;8.70;5.95;;;33.50;82.20;;;;;;5015553;28;20124;-69
2022/08/15 11:29:43;;;;;;;8.07;6.05;;;33.40;81.90;;;;;;5016045;28;20053;-69
2022/08/15 11:32:21;;;;;;;9.38;6.35;;;33.60;81.40;;;;;;5022896;28;20055;-69
2022/08/15 11:35:28;;;;;;;7.90;5.63;;;33.90;79.50;;;;;;5016212;28;20049;-69
2022/08/15 11:38:00;;;;;;;7.60;6.28;;;33.50;80.50;;;;;;5022744;28;20428;-69
2022/08/15 11:40:31;;;;;;;6.00;5.18;;;33.70;81.00;;;;;;5025797;28;20057;-69
2022/08/15 11:42:58;;;;;;;8.18;5.47;;;33.90;80.50;;;;;;5023552;28;20054;-70
2022/08/15 11:45:28;;;;;;;7.10;5.93;;;33.60;79.70;;;;;;5025082;28;20085;-70
2022/08/15 11:47:57;;;;;;;5.32;4.28;;;33.20;79.70;;;;;;5020846;28;20088;-69
2022/08/15 11:50:30;;;;;;;6.90;4.93;;;32.60;81.20;;;;;;5024377;28;20093;-69
2022/08/15 11:53:01;;;;;;;5.47;4.30;;;32.30;81.30;;;;;;5023861;28;20081;-69
2022/08/15 11:55:41;;;;;;;5.68;4.38;;;31.70;80.50;;;;;;5024052;28;20037;-69
2022/08/15 11:58:13;;;;;;;6.85;5.03;;;31.40;81.30;;;;;;5019728;28;20041;-69
2022/08/15 12:00:51;;;;;;;6.20;4.45;;;30.80;81.70;;;;;;5025836;28;20073;-69
2022/08/15 12:03:32;;;;;;;5.28;4.13;;;30.60;82.30;;;;;;5020475;28;20046;-69
2022/08/15 12:06:12;;;;;;;5.47;3.90;;;30.20;82.40;;;;;;5016644;28;20175;-69
2022/08/15 12:08:39;;;;;;;7.68;3.78;;;30.20;82.50;;;;;;5019938;28;20108;-68
2022/08/15 12:11:14;;;;;;;4.15;3.30;;;30.10;82.40;;;;;;5025609;28;20120;-68
2022/08/15 12:13:57;;;;;;;6.45;3.85;;;30.30;82.80;;;;;;5022178;28;20042;-68
2022/08/15 12:16:45;;;;;;;4.95;3.60;;;30.50;84.10;;;;;;5023485;28;20030;-68
2022/08/15 12:19:35;;;;;;;6.00;3.42;;;30.60;82.80;;;;;;5019949;28;20080;-69
2022/08/15 12:22:08;;;;;;;5.38;3.53;;;30.40;80.70;;;;;;5018989;28;20375;-68
2022/08/15 12:24:35;;;;;;;6.15;3.45;;;30.40;80.90;;;;;;5024561;28;20081;-69
2022/08/15 12:27:01;;;;;;;4.72;3.40;;;30.50;81.70;;;;;;5021902;28;20109;-69
2022/08/15 12:29:31;;;;;;;5.35;3.58;;;30.30;82.20;;;;;;5026626;28;20434;-69
2022/08/15 12:31:59;;;;;;;5.18;3.05;;;30.20;83.80;;;;;;5017908;28;20493;-68
2022/08/15 12:34:38;;;;;;;6.32;3.80;;;30.40;83.00;;;;;;5014388;28;20050;-69
2022/08/15 12:37:06;;;;;;;4.88;3.25;;;30.50;83.20;;;;;;5020741;28;20045;-69
2022/08/15 12:39:38;;;;;;;6.50;3.55;;;30.40;83.70;;;;;;5025337;28;20038;-68
2022/08/15 12:42:04;;;;;;;5.90;3.50;;;30.30;83.90;;;;;;5021309;28;20033;-68
2022/08/15 12:44:36;;;;;;;7.57;3.47;;;30.20;83.40;;;;;;5025306;28;20048;-69
2022/08/15 12:47:01;;;;;;;5.57;3.58;;;29.90;83.60;;;;;;5020682;28;20040;-68
2022/08/15 12:49:27;;;;;;;5.55;3.42;;;29.60;84.40;;;;;;5021139;28;20041;-69
2022/08/15 12:51:53;;;;;;;5.38;3.40;;;29.50;85.20;;;;;;5024131;28;20045;-69
2022/08/15 12:54:19;;;;;;;5.47;3.67;;;29.40;85.40;;;;;;5020484;28;20137;-69
2022/08/15 12:56:45;;;;;;;6.22;3.80;;;29.20;86.20;;;;;;5025256;28;20049;-68
2022/08/15 12:59:12;;;;;;;4.97;3.67;;;29.20;86.80;;;;;;5022734;28;20411;-69
2022/08/15 13:01:39;;;;;;;6.03;3.72;;;29.30;87.40;;;;;;5021963;28;20057;-69
2022/08/15 13:04:07;;;;;;;6.03;4.32;;;29.30;87.80;;;;;;5018592;28;20523;-69
2022/08/15 13:06:39;;;;;;;6.15;4.35;;;29.30;87.80;;;;;;5022234;28;20049;-69
2022/08/15 13:09:07;;;;;;;7.05;4.55;;;29.30;88.10;;;;;;5021997;28;20037;-69
2022/08/15 13:11:35;;;;;;;6.40;4.38;;;29.40;88.10;;;;;;5023734;28;20088;-69
2022/08/15 13:14:01;;;;;;;6.07;3.85;;;29.40;88.20;;;;;;5023570;28;20041;-68
2022/08/15 13:16:27;;;;;;;5.10;4.05;;;29.50;88.60;;;;;;5022021;28;20033;-69